createdAt,value
2023-05-06T00:00:26.508Z,31.58
2023-05-06T00:01:26.489Z,31.58
2023-05-06T00:02:27.216Z,32.07
2023-05-06T00:03:26.560Z,31.74
2023-05-06T00:04:26.499Z,31.90
2023-05-06T00:05:26.447Z,31.90
2023-05-06T00:06:26.825Z,31.58
2023-05-06T00:07:26.742Z,31.90
2023-05-06T00:08:26.435Z,31.42
2023-05-06T00:09:26.409Z,31.74
2023-05-06T00:10:26.402Z,31.74
2023-05-06T00:11:26.719Z,31.74
2023-05-06T00:12:26.393Z,31.90
2023-05-06T00:13:26.376Z,31.74
2023-05-06T00:14:26.368Z,31.90
2023-05-06T00:15:26.365Z,31.42
2023-05-06T00:16:26.725Z,31.58
2023-05-06T00:17:26.385Z,31.58
2023-05-06T00:18:26.335Z,31.74
2023-05-06T00:19:26.328Z,32.07
2023-05-06T00:20:26.634Z,31.74
2023-05-06T00:21:26.847Z,32.39
2023-05-06T00:22:26.297Z,32.07
2023-05-06T00:23:26.285Z,31.90
2023-05-06T00:24:26.288Z,31.74
2023-05-06T00:25:26.932Z,31.26
2023-05-06T00:26:26.257Z,31.90
2023-05-06T00:27:26.256Z,32.23
2023-05-06T00:28:26.242Z,31.74
2023-05-06T00:29:26.245Z,31.74
2023-05-06T00:30:27.168Z,32.07
2023-05-06T00:31:26.273Z,32.23
2023-05-06T00:32:26.213Z,31.74
2023-05-06T00:33:26.201Z,31.90
2023-05-06T00:34:26.535Z,32.07
2023-05-06T00:35:27.019Z,31.58
2023-05-06T00:36:26.164Z,31.74
2023-05-06T00:37:26.165Z,31.74
2023-05-06T00:38:26.152Z,31.90
2023-05-06T00:39:26.442Z,31.58
2023-05-06T00:40:26.131Z,31.58
2023-05-06T00:41:26.130Z,31.58
2023-05-06T00:42:26.111Z,31.74
2023-05-06T00:43:26.107Z,29.33
2023-05-06T00:44:26.401Z,31.58
2023-05-06T00:45:26.090Z,31.74
2023-05-06T00:46:26.149Z,31.58
2023-05-06T00:47:26.072Z,31.58
2023-05-06T00:48:26.353Z,31.42
2023-05-06T00:49:26.422Z,34.16
2023-05-06T00:50:26.041Z,31.74
2023-05-06T00:51:26.045Z,31.58
2023-05-06T00:52:26.020Z,31.58
2023-05-06T00:53:26.182Z,31.74
2023-05-06T00:54:26.002Z,31.58
2023-05-06T00:55:26.006Z,31.74
2023-05-06T00:56:25.991Z,31.42
2023-05-06T00:57:25.995Z,31.74
2023-05-06T00:58:26.303Z,31.58
2023-05-06T00:59:25.969Z,31.42
2023-05-06T01:00:25.952Z,31.42
2023-05-06T01:01:25.960Z,31.26
2023-05-06T01:02:33.254Z,31.74
2023-05-06T01:03:26.565Z,31.42
2023-05-06T01:04:25.920Z,31.42
2023-05-06T01:05:25.952Z,34.48
2023-05-06T01:06:25.886Z,31.26
2023-05-06T01:07:26.425Z,31.42
2023-05-06T01:08:25.870Z,31.58
2023-05-06T01:09:25.871Z,31.10
2023-05-06T01:10:25.853Z,31.10
2023-05-06T01:11:25.849Z,31.74
2023-05-06T01:12:26.173Z,30.29
2023-05-06T01:13:25.835Z,31.74
2023-05-06T01:14:25.818Z,31.58
2023-05-06T01:15:25.814Z,31.26
2023-05-06T01:16:26.592Z,31.26
2023-05-06T01:17:26.120Z,31.58
2023-05-06T01:18:25.814Z,31.42
2023-05-06T01:19:25.780Z,31.58
2023-05-06T01:20:25.768Z,31.58
2023-05-06T01:21:26.067Z,30.94
2023-05-06T01:22:25.746Z,31.26
2023-05-06T01:23:25.742Z,33.19
2023-05-06T01:24:25.728Z,31.10
2023-05-06T01:25:25.739Z,31.10
2023-05-06T01:26:26.556Z,31.26
2023-05-06T01:27:25.709Z,31.26
2023-05-06T01:28:25.690Z,31.26
2023-05-06T01:29:25.691Z,30.94
2023-05-06T01:30:26.424Z,30.94
2023-05-06T01:31:26.047Z,31.26
2023-05-06T01:32:25.690Z,31.10
2023-05-06T01:33:25.655Z,31.58
2023-05-06T01:34:25.648Z,31.10
2023-05-06T01:35:26.525Z,31.58
2023-05-06T01:36:25.633Z,31.10
2023-05-06T01:37:25.627Z,31.10
2023-05-06T01:38:25.606Z,31.10
2023-05-06T01:39:25.605Z,31.26
2023-05-06T01:40:25.894Z,31.42
2023-05-06T01:41:25.587Z,31.26
2023-05-06T01:42:25.567Z,31.42
2023-05-06T01:43:25.567Z,31.26
2023-05-06T01:44:25.925Z,31.10
2023-05-06T01:45:26.445Z,31.26
2023-05-06T01:46:25.546Z,31.74
2023-05-06T01:47:25.573Z,31.26
2023-05-06T01:48:25.531Z,30.94
2023-05-06T01:49:25.733Z,31.10
2023-05-06T01:50:25.517Z,31.10
2023-05-06T01:51:25.490Z,31.42
2023-05-06T01:52:25.485Z,31.26
2023-05-06T01:53:25.758Z,31.10
2023-05-06T01:54:25.880Z,31.26
2023-05-06T01:55:25.455Z,31.42
2023-05-06T01:56:25.457Z,31.90
2023-05-06T01:57:25.446Z,31.42
2023-05-06T01:58:25.615Z,31.10
2023-05-06T01:59:25.419Z,30.94
2023-05-06T02:00:25.435Z,31.58
2023-05-06T02:01:25.487Z,31.26
2023-05-06T02:02:25.511Z,31.74
2023-05-06T02:03:25.690Z,31.74
2023-05-06T02:04:25.385Z,31.58
2023-05-06T02:05:25.365Z,32.39
2023-05-06T02:06:25.369Z,31.74
2023-05-06T02:07:26.150Z,31.10
2023-05-06T02:08:25.345Z,34.80
2023-05-06T02:09:25.638Z,32.87
2023-05-06T02:10:25.331Z,31.42
2023-05-06T02:11:25.317Z,32.07
2023-05-06T02:12:25.651Z,32.07
2023-05-06T02:13:25.298Z,31.90
2023-05-06T02:14:25.295Z,31.74
2023-05-06T02:15:25.300Z,31.74
2023-05-06T02:16:25.330Z,32.07
2023-05-06T02:17:26.105Z,31.42
2023-05-06T02:18:25.281Z,32.39
2023-05-06T02:19:25.241Z,32.07
2023-05-06T02:20:25.234Z,31.90
2023-05-06T02:21:25.668Z,31.58
2023-05-06T02:22:25.571Z,32.23
2023-05-06T02:23:25.209Z,31.74
2023-05-06T02:24:25.207Z,30.94
2023-05-06T02:25:25.191Z,31.58
2023-05-06T02:26:26.124Z,31.58
2023-05-06T02:27:25.194Z,32.07
2023-05-06T02:28:25.185Z,32.07
2023-05-06T02:29:25.159Z,31.90
2023-05-06T02:30:25.160Z,32.07
2023-05-06T02:31:26.088Z,31.74
2023-05-06T02:32:25.527Z,32.07
2023-05-06T02:33:25.114Z,31.74
2023-05-06T02:34:25.114Z,33.52
2023-05-06T02:35:25.421Z,33.35
2023-05-06T02:36:25.472Z,31.58
2023-05-06T02:37:25.088Z,32.23
2023-05-06T02:38:25.097Z,33.03
2023-05-06T02:39:25.067Z,32.23
2023-05-06T02:40:25.328Z,32.23
2023-05-06T02:41:25.049Z,31.90
2023-05-06T02:42:25.052Z,33.35
2023-05-06T02:43:25.035Z,37.87
2023-05-06T02:44:25.031Z,32.07
2023-05-06T02:45:25.323Z,31.90
2023-05-06T02:46:25.128Z,31.74
2023-05-06T02:47:25.029Z,32.07
2023-05-06T02:48:25.019Z,31.42
2023-05-06T02:49:25.462Z,32.87
2023-05-06T02:50:25.295Z,32.07
2023-05-06T02:51:24.962Z,32.39
2023-05-06T02:52:24.971Z,32.55
2023-05-06T02:53:24.950Z,31.90
2023-05-06T02:54:25.321Z,33.35
2023-05-06T02:55:24.928Z,34.00
2023-05-06T02:56:24.968Z,32.71
2023-05-06T02:57:24.910Z,32.87
2023-05-06T02:58:24.912Z,41.73
2023-05-06T02:59:25.206Z,37.22
2023-05-06T03:00:24.893Z,36.09
2023-05-06T03:01:24.919Z,39.32
2023-05-06T03:02:24.906Z,34.97
2023-05-06T03:03:25.358Z,38.51
2023-05-06T03:04:25.308Z,40.93
2023-05-06T03:05:24.852Z,42.22
2023-05-06T03:06:24.835Z,38.03
2023-05-06T03:07:24.840Z,39.80
2023-05-06T03:08:25.166Z,39.64
2023-05-06T03:09:24.809Z,39.64
2023-05-06T03:10:24.807Z,43.99
2023-05-06T03:11:24.786Z,34.48
2023-05-06T03:12:24.793Z,37.06
2023-05-06T03:13:24.804Z,42.86
2023-05-06T03:14:24.775Z,38.83
2023-05-06T03:15:24.697Z,34.97
2023-05-06T03:16:24.753Z,36.09
2023-05-06T03:17:25.526Z,34.97
2023-05-06T03:18:24.676Z,40.93
2023-05-06T03:19:25.103Z,49.95
2023-05-06T03:20:24.667Z,46.73
2023-05-06T03:21:24.712Z,37.22
2023-05-06T03:22:24.677Z,35.77
2023-05-06T03:23:24.652Z,36.74
2023-05-06T03:24:24.624Z,39.32
2023-05-06T03:25:24.618Z,38.99
2023-05-06T03:26:24.612Z,35.13
2023-05-06T03:27:24.938Z,36.58
2023-05-06T03:28:24.586Z,38.19
2023-05-06T03:29:24.579Z,44.63
2023-05-06T03:30:24.573Z,35.61
2023-05-06T03:31:24.638Z,34.00
2023-05-06T03:32:24.987Z,44.96
2023-05-06T03:33:24.539Z,33.84
2023-05-06T03:34:24.567Z,41.41
2023-05-06T03:35:24.522Z,35.29
2023-05-06T03:36:25.424Z,37.38
2023-05-06T03:37:24.508Z,35.93
2023-05-06T03:38:24.510Z,39.96
2023-05-06T03:39:24.490Z,34.64
2023-05-06T03:40:24.486Z,32.87
2023-05-06T03:41:24.789Z,41.57
2023-05-06T03:42:24.467Z,33.03
2023-05-06T03:43:24.451Z,47.21
2023-05-06T03:44:24.448Z,32.07
2023-05-06T03:45:25.254Z,32.07
2023-05-06T03:46:25.331Z,32.87
2023-05-06T03:47:24.430Z,32.39
2023-05-06T03:48:24.417Z,34.97
2023-05-06T03:49:24.396Z,34.48
2023-05-06T03:50:24.410Z,34.64
2023-05-06T03:51:24.374Z,32.55
2023-05-06T03:52:24.373Z,37.71
2023-05-06T03:53:24.357Z,45.60
2023-05-06T03:54:24.356Z,32.23
2023-05-06T03:55:24.657Z,34.16
2023-05-06T03:56:24.338Z,33.03
2023-05-06T03:57:24.331Z,36.25
2023-05-06T03:58:24.312Z,34.97
2023-05-06T03:59:24.743Z,31.90
2023-05-06T04:00:25.050Z,32.87
2023-05-06T04:01:24.295Z,33.03
2023-05-06T04:02:24.379Z,33.35
2023-05-06T04:03:24.372Z,31.90
2023-05-06T04:04:24.531Z,33.19
2023-05-06T04:05:24.268Z,32.07
2023-05-06T04:06:24.249Z,35.13
2023-05-06T04:07:24.236Z,42.70
2023-05-06T04:08:24.734Z,32.71
2023-05-06T04:09:24.571Z,32.07
2023-05-06T04:10:24.225Z,35.45
2023-05-06T04:11:24.193Z,32.39
2023-05-06T04:12:24.206Z,32.23
2023-05-06T04:13:24.495Z,32.23
2023-05-06T04:14:24.174Z,32.87
2023-05-06T04:15:24.164Z,34.48
2023-05-06T04:16:24.174Z,33.35
2023-05-06T04:17:24.197Z,37.87
2023-05-06T04:18:24.482Z,33.68
2023-05-06T04:19:24.241Z,33.19
2023-05-06T04:20:24.133Z,32.39
2023-05-06T04:21:24.106Z,31.90
2023-05-06T04:22:24.492Z,32.87
2023-05-06T04:23:24.440Z,33.35
2023-05-06T04:24:24.082Z,32.23
2023-05-06T04:25:24.073Z,34.16
2023-05-06T04:26:24.074Z,31.90
2023-05-06T04:27:24.374Z,34.32
2023-05-06T04:28:24.053Z,36.42
2023-05-06T04:29:24.060Z,33.19
2023-05-06T04:30:24.045Z,31.90
2023-05-06T04:31:24.083Z,33.03
2023-05-06T04:32:24.813Z,32.07
2023-05-06T04:33:24.018Z,31.58
2023-05-06T04:34:24.010Z,32.07
2023-05-06T04:35:23.995Z,33.19
2023-05-06T04:36:24.751Z,32.71
2023-05-06T04:37:24.274Z,34.32
2023-05-06T04:38:23.973Z,31.90
2023-05-06T04:39:23.961Z,32.55
2023-05-06T04:40:23.951Z,32.07
2023-05-06T04:41:24.301Z,32.39
2023-05-06T04:42:23.938Z,35.13
2023-05-06T04:43:23.920Z,33.84
2023-05-06T04:44:23.923Z,32.39
2023-05-06T04:45:23.903Z,31.74
2023-05-06T04:46:24.678Z,32.87
2023-05-06T04:47:23.895Z,34.16
2023-05-06T04:48:23.890Z,31.90
2023-05-06T04:49:23.875Z,33.19
2023-05-06T04:50:24.205Z,31.90
2023-05-06T04:51:24.225Z,35.45
2023-05-06T04:52:23.849Z,32.71
2023-05-06T04:53:23.838Z,32.07
2023-05-06T04:54:23.832Z,32.23
2023-05-06T04:55:24.004Z,34.16
2023-05-06T04:56:23.810Z,39.80
2023-05-06T04:57:23.799Z,31.90
2023-05-06T04:58:23.794Z,31.26
2023-05-06T04:59:23.782Z,34.97
2023-05-06T05:00:24.677Z,32.23
2023-05-06T05:01:23.771Z,31.74
2023-05-06T05:02:23.831Z,32.39
2023-05-06T05:03:23.998Z,32.39
2023-05-06T05:04:24.196Z,32.23
2023-05-06T05:05:24.000Z,37.71
2023-05-06T05:06:23.724Z,34.80
2023-05-06T05:07:23.711Z,33.03
2023-05-06T05:08:23.703Z,32.07
2023-05-06T05:09:24.088Z,31.10
2023-05-06T05:10:23.688Z,31.74
2023-05-06T05:11:23.674Z,32.07
2023-05-06T05:12:23.665Z,32.23
2023-05-06T05:13:23.653Z,31.90
2023-05-06T05:14:23.951Z,34.64
2023-05-06T05:15:23.645Z,31.10
2023-05-06T05:16:23.658Z,31.10
2023-05-06T05:17:23.628Z,31.58
2023-05-06T05:18:23.972Z,31.58
2023-05-06T05:19:23.910Z,31.10
2023-05-06T05:20:23.603Z,31.58
2023-05-06T05:21:23.580Z,31.10
2023-05-06T05:22:23.580Z,39.16
2023-05-06T05:23:23.895Z,37.87
2023-05-06T05:24:23.574Z,32.23
2023-05-06T05:25:23.548Z,36.42
2023-05-06T05:26:23.548Z,30.94
2023-05-06T05:27:23.540Z,31.10
2023-05-06T05:28:23.553Z,33.52
2023-05-06T05:29:23.512Z,32.39
2023-05-06T05:30:23.528Z,31.10
2023-05-06T05:31:23.545Z,30.94
2023-05-06T05:32:23.778Z,31.74
2023-05-06T05:33:23.902Z,31.90
2023-05-06T05:34:23.476Z,31.10
2023-05-06T05:35:23.467Z,31.26
2023-05-06T05:36:23.488Z,30.94
2023-05-06T05:37:24.112Z,31.10
2023-05-06T05:38:23.431Z,32.23
2023-05-06T05:39:23.424Z,31.58
2023-05-06T05:40:23.427Z,31.58
2023-05-06T05:41:23.404Z,32.39
2023-05-06T05:42:23.524Z,31.26
2023-05-06T05:43:23.381Z,31.42
2023-05-06T05:44:23.399Z,31.74
2023-05-06T05:45:23.363Z,30.45
2023-05-06T05:46:23.897Z,34.00
2023-05-06T05:47:23.772Z,43.83
2023-05-06T05:48:23.342Z,31.42
2023-05-06T05:49:23.339Z,33.52
2023-05-06T05:50:23.323Z,31.10
2023-05-06T05:51:23.788Z,30.78
2023-05-06T05:52:23.303Z,31.10
2023-05-06T05:53:23.287Z,31.10
2023-05-06T05:54:23.281Z,31.10
2023-05-06T05:55:23.316Z,31.10
2023-05-06T05:56:23.281Z,30.94
2023-05-06T05:57:23.248Z,31.10
2023-05-06T05:58:23.258Z,30.94
2023-05-06T05:59:23.226Z,31.26
2023-05-06T06:00:23.596Z,30.94
2023-05-06T06:01:23.595Z,30.94
2023-05-06T06:02:23.261Z,31.42
2023-05-06T06:03:23.282Z,32.23
2023-05-06T06:04:23.191Z,31.74
2023-05-06T06:05:23.386Z,32.23
2023-05-06T06:06:23.165Z,34.48
2023-05-06T06:07:23.154Z,31.10
2023-05-06T06:08:23.144Z,31.10
2023-05-06T06:09:23.131Z,31.74
2023-05-06T06:10:23.321Z,31.42
2023-05-06T06:11:23.118Z,31.58
2023-05-06T06:12:23.097Z,31.10
2023-05-06T06:13:23.234Z,31.74
2023-05-06T06:14:23.474Z,32.87
2023-05-06T06:15:23.332Z,32.07
2023-05-06T06:16:23.118Z,32.87
2023-05-06T06:17:23.062Z,32.39
2023-05-06T06:18:23.027Z,31.10
2023-05-06T06:19:23.420Z,31.10
2023-05-06T06:20:23.003Z,31.10
2023-05-06T06:21:23.007Z,30.78
2023-05-06T06:22:22.980Z,31.42
2023-05-06T06:23:23.001Z,30.62
2023-05-06T06:24:23.286Z,30.62
2023-05-06T06:25:22.956Z,30.45
2023-05-06T06:26:22.943Z,30.94
2023-05-06T06:27:22.952Z,31.42
2023-05-06T06:28:23.455Z,44.31
2023-05-06T06:29:23.340Z,31.74
2023-05-06T06:30:22.890Z,30.78
2023-05-06T06:31:22.929Z,29.81
2023-05-06T06:32:22.962Z,30.29
2023-05-06T06:33:22.896Z,32.87
2023-05-06T06:34:22.855Z,32.39
2023-05-06T06:35:22.862Z,31.26
2023-05-06T06:36:22.837Z,30.13
2023-05-06T06:37:22.832Z,30.62
2023-05-06T06:38:22.837Z,28.68
2023-05-06T06:39:22.806Z,28.52
2023-05-06T06:40:22.804Z,28.68
2023-05-06T06:41:22.791Z,27.88
2023-05-06T06:42:22.793Z,28.68
2023-05-06T06:43:22.773Z,27.71
2023-05-06T06:44:22.984Z,31.42
2023-05-06T06:45:22.741Z,28.52
2023-05-06T06:46:22.758Z,31.58
2023-05-06T06:47:23.599Z,28.68
2023-05-06T06:48:22.707Z,28.52
2023-05-06T06:49:22.703Z,30.78
2023-05-06T06:50:22.687Z,30.29
2023-05-06T06:51:22.681Z,33.68
2023-05-06T06:52:22.984Z,29.17
2023-05-06T06:53:22.685Z,28.52
2023-05-06T06:54:22.638Z,28.68
2023-05-06T06:55:22.635Z,28.04
2023-05-06T06:56:22.916Z,28.36
2023-05-06T06:57:23.344Z,28.68
2023-05-06T06:58:22.603Z,29.97
2023-05-06T06:59:22.595Z,30.13
2023-05-06T07:00:22.569Z,30.62
2023-05-06T07:01:22.928Z,29.33
2023-05-06T07:02:22.743Z,28.20
2023-05-06T07:03:22.539Z,28.52
2023-05-06T07:04:22.563Z,28.84
2023-05-06T07:05:22.517Z,29.17
2023-05-06T07:06:22.520Z,29.65
2023-05-06T07:07:22.500Z,32.55
2023-05-06T07:08:22.480Z,30.13
2023-05-06T07:09:22.509Z,30.29
2023-05-06T07:10:22.769Z,28.52
2023-05-06T07:11:22.823Z,27.88
2023-05-06T07:12:22.430Z,26.75
2023-05-06T07:13:22.478Z,27.55
2023-05-06T07:14:22.422Z,26.75
2023-05-06T07:15:23.180Z,28.20
2023-05-06T07:16:22.415Z,26.59
2023-05-06T07:17:22.411Z,26.59
2023-05-06T07:18:22.418Z,26.75
2023-05-06T07:19:22.368Z,26.59
2023-05-06T07:20:22.693Z,26.75
2023-05-06T07:21:22.356Z,26.75
2023-05-06T07:22:22.360Z,26.59
2023-05-06T07:23:22.329Z,26.59
2023-05-06T07:24:22.661Z,26.75
2023-05-06T07:25:22.612Z,26.59
2023-05-06T07:26:22.300Z,26.75
2023-05-06T07:27:22.292Z,26.75
2023-05-06T07:28:22.312Z,26.75
2023-05-06T07:29:22.654Z,27.39
2023-05-06T07:30:23.299Z,26.75
2023-05-06T07:31:22.248Z,26.75
2023-05-06T07:32:22.257Z,26.75
2023-05-06T07:33:22.410Z,26.59
2023-05-06T07:34:22.509Z,26.59
2023-05-06T07:35:22.196Z,29.49
2023-05-06T07:36:22.188Z,26.75
2023-05-06T07:37:22.181Z,27.55
2023-05-06T07:38:22.494Z,29.49
2023-05-06T07:39:22.174Z,30.78
2023-05-06T07:40:22.141Z,29.65
2023-05-06T07:41:22.136Z,29.00
2023-05-06T07:42:22.115Z,28.84
2023-05-06T07:43:22.481Z,48.50
2023-05-06T07:44:22.098Z,27.39
2023-05-06T07:45:22.106Z,29.17
2023-05-06T07:46:22.121Z,41.41
2023-05-06T07:47:22.151Z,29.97
2023-05-06T07:48:22.183Z,30.62
2023-05-06T07:49:22.057Z,31.90
2023-05-06T07:50:22.034Z,30.13
2023-05-06T07:51:22.025Z,28.84
2023-05-06T07:52:22.329Z,37.54
2023-05-06T07:53:22.025Z,31.58
2023-05-06T07:54:21.992Z,29.97
2023-05-06T07:55:21.989Z,29.33
2023-05-06T07:56:21.963Z,29.17
2023-05-06T07:57:21.989Z,28.20
2023-05-06T07:58:21.952Z,29.00
2023-05-06T07:59:21.948Z,32.71
2023-05-06T08:00:21.929Z,32.07
2023-05-06T08:01:21.976Z,29.17
2023-05-06T08:02:22.156Z,31.26
2023-05-06T08:03:21.995Z,30.62
2023-05-06T08:04:21.959Z,28.36
2023-05-06T08:05:21.889Z,28.68
2023-05-06T08:06:22.140Z,30.29
2023-05-06T08:07:21.876Z,28.52
2023-05-06T08:08:21.848Z,28.68
2023-05-06T08:09:23.082Z,31.74
2023-05-06T08:10:21.830Z,29.33
2023-05-06T08:11:21.840Z,29.00
2023-05-06T08:12:21.799Z,33.84
2023-05-06T08:13:21.849Z,27.88
2023-05-06T08:14:21.783Z,29.33
2023-05-06T08:15:21.780Z,29.97
2023-05-06T08:16:24.583Z,41.09
2023-05-06T08:17:21.796Z,40.44
2023-05-06T08:18:23.111Z,39.96
2023-05-06T08:19:21.742Z,39.96
2023-05-06T08:20:22.241Z,38.99
2023-05-06T08:21:21.732Z,38.99
2023-05-06T08:22:21.696Z,42.38
2023-05-06T08:23:21.703Z,56.88
2023-05-06T08:24:21.700Z,58.01
2023-05-06T08:25:22.026Z,74.28
2023-05-06T08:26:21.668Z,73.48
2023-05-06T08:27:21.666Z,54.79
2023-05-06T08:28:23.088Z,39.80
2023-05-06T08:29:21.646Z,40.44
2023-05-06T08:30:22.638Z,43.18
2023-05-06T08:31:21.663Z,41.25
2023-05-06T08:32:21.618Z,39.80
2023-05-06T08:33:21.588Z,56.07
2023-05-06T08:34:21.599Z,47.70
2023-05-06T08:35:21.599Z,38.35
2023-05-06T08:36:21.548Z,39.48
2023-05-06T08:37:21.550Z,39.96
2023-05-06T08:38:21.537Z,39.32
2023-05-06T08:39:21.864Z,39.32
2023-05-06T08:40:21.557Z,39.80
2023-05-06T08:41:21.543Z,29.33
2023-05-06T08:42:21.491Z,31.10
2023-05-06T08:43:21.480Z,29.65
2023-05-06T08:44:21.787Z,34.16
2023-05-06T08:45:21.475Z,28.68
2023-05-06T08:46:21.537Z,29.00
2023-05-06T08:47:21.479Z,28.36
2023-05-06T08:48:22.428Z,31.42
2023-05-06T08:49:21.418Z,29.65
2023-05-06T08:50:21.719Z,30.94
2023-05-06T08:51:21.396Z,27.55
2023-05-06T08:52:21.424Z,28.84
2023-05-06T08:53:21.693Z,28.36
2023-05-06T08:54:21.356Z,30.78
2023-05-06T08:55:21.353Z,32.07
2023-05-06T08:56:21.333Z,31.26
2023-05-06T08:57:21.335Z,28.36
2023-05-06T08:58:21.630Z,28.04
2023-05-06T08:59:21.315Z,28.36
2023-05-06T09:00:21.304Z,27.39
2023-05-06T09:01:21.342Z,34.32
2023-05-06T09:02:21.861Z,30.13
2023-05-06T09:03:21.606Z,29.17
2023-05-06T09:04:21.252Z,28.68
2023-05-06T09:05:21.246Z,29.49
2023-05-06T09:06:21.231Z,28.52
2023-05-06T09:07:21.983Z,29.00
2023-05-06T09:08:21.215Z,28.52
2023-05-06T09:09:21.204Z,28.04
2023-05-06T09:10:21.188Z,27.88
2023-05-06T09:11:21.231Z,29.33
2023-05-06T09:12:21.500Z,28.36
2023-05-06T09:13:21.222Z,36.09
2023-05-06T09:14:21.141Z,33.35
2023-05-06T09:15:21.140Z,29.00
2023-05-06T09:16:21.811Z,27.39
2023-05-06T09:17:22.052Z,29.81
2023-05-06T09:18:21.107Z,29.00
2023-05-06T09:19:21.110Z,35.13
2023-05-06T09:20:21.087Z,35.93
2023-05-06T09:21:21.433Z,32.23
2023-05-06T09:22:21.111Z,36.58
2023-05-06T09:23:21.063Z,31.74
2023-05-06T09:24:21.047Z,29.00
2023-05-06T09:25:21.037Z,28.84
2023-05-06T09:26:21.376Z,38.51
2023-05-06T09:27:21.020Z,29.49
2023-05-06T09:28:20.997Z,32.23
2023-05-06T09:29:21.002Z,39.32
2023-05-06T09:30:21.759Z,32.55
2023-05-06T09:31:21.378Z,31.42
2023-05-06T09:32:20.972Z,37.38
2023-05-06T09:33:20.974Z,35.93
2023-05-06T09:34:20.936Z,28.36
2023-05-06T09:35:20.963Z,31.26
2023-05-06T09:36:20.914Z,31.42
2023-05-06T09:37:20.918Z,29.00
2023-05-06T09:38:20.893Z,29.97
2023-05-06T09:39:20.884Z,28.36
2023-05-06T09:40:21.213Z,32.55
2023-05-06T09:41:20.878Z,28.52
2023-05-06T09:42:20.864Z,28.84
2023-05-06T09:43:20.845Z,32.39
2023-05-06T09:44:21.168Z,49.95
2023-05-06T09:45:21.534Z,29.49
2023-05-06T09:46:20.833Z,39.16
2023-05-06T09:47:20.804Z,27.55
2023-05-06T09:48:20.788Z,28.52
2023-05-06T09:49:21.537Z,27.88
2023-05-06T09:50:20.765Z,30.78
2023-05-06T09:51:20.774Z,29.00
2023-05-06T09:52:20.819Z,27.71
2023-05-06T09:53:20.737Z,28.20
2023-05-06T09:54:21.228Z,28.84
2023-05-06T09:55:20.720Z,28.52
2023-05-06T09:56:20.702Z,30.62
2023-05-06T09:57:20.700Z,29.49
2023-05-06T09:58:21.467Z,34.00
2023-05-06T09:59:20.948Z,28.52
2023-05-06T10:00:20.661Z,33.84
2023-05-06T10:01:32.557Z,33.03
2023-05-06T10:02:20.802Z,32.07
2023-05-06T10:03:21.571Z,28.36
2023-05-06T10:04:21.102Z,29.17
2023-05-06T10:05:20.860Z,32.07
2023-05-06T10:06:20.612Z,28.68
2023-05-06T10:07:20.589Z,28.52
2023-05-06T10:08:20.892Z,28.36
2023-05-06T10:09:20.591Z,29.65
2023-05-06T10:10:20.569Z,29.49
2023-05-06T10:11:20.559Z,30.62
2023-05-06T10:12:20.974Z,30.62
2023-05-06T10:13:20.549Z,29.65
2023-05-06T10:14:20.525Z,29.49
2023-05-06T10:15:20.508Z,46.57
2023-05-06T10:16:20.587Z,44.15
2023-05-06T10:17:21.148Z,29.97
2023-05-06T10:18:20.484Z,29.17
2023-05-06T10:19:20.996Z,51.40
2023-05-06T10:20:20.460Z,30.78
2023-05-06T10:21:20.447Z,28.36
2023-05-06T10:22:21.288Z,29.49
2023-05-06T10:23:20.422Z,31.10
2023-05-06T10:24:20.420Z,33.52
2023-05-06T10:25:20.407Z,30.78
2023-05-06T10:26:20.732Z,28.84
2023-05-06T10:27:20.690Z,29.33
2023-05-06T10:28:25.549Z,32.87
2023-05-06T10:29:20.361Z,29.33
2023-05-06T10:30:20.351Z,28.04
2023-05-06T10:31:21.193Z,30.45
2023-05-06T10:32:20.335Z,32.07
2023-05-06T10:33:20.310Z,29.33
2023-05-06T10:34:20.307Z,34.80
2023-05-06T10:35:20.285Z,29.33
2023-05-06T10:36:20.681Z,29.00
2023-05-06T10:37:20.267Z,28.52
2023-05-06T10:38:20.260Z,30.94
2023-05-06T10:39:20.248Z,28.52
2023-05-06T10:40:20.933Z,27.55
2023-05-06T10:41:20.457Z,31.10
2023-05-06T10:42:20.228Z,27.88
2023-05-06T10:43:20.196Z,28.36
2023-05-06T10:44:20.213Z,28.04
2023-05-06T10:45:21.155Z,29.33
2023-05-06T10:46:20.173Z,29.17
2023-05-06T10:47:20.155Z,28.52
2023-05-06T10:48:20.155Z,28.36
2023-05-06T10:49:20.148Z,28.36
2023-05-06T10:50:20.593Z,27.88
2023-05-06T10:51:20.121Z,27.39
2023-05-06T10:52:20.111Z,30.45
2023-05-06T10:53:20.093Z,30.62
2023-05-06T10:54:20.457Z,31.42
2023-05-06T10:55:20.353Z,28.68
2023-05-06T10:56:20.066Z,29.49
2023-05-06T10:57:20.052Z,34.48
2023-05-06T10:58:20.055Z,39.48
2023-05-06T10:59:20.355Z,38.03
2023-05-06T11:00:20.040Z,34.00
2023-05-06T11:01:20.059Z,32.71
2023-05-06T11:02:20.297Z,30.78
2023-05-06T11:03:20.080Z,32.23
2023-05-06T11:04:20.211Z,29.00
2023-05-06T11:05:19.973Z,33.84
2023-05-06T11:06:19.970Z,40.44
2023-05-06T11:07:19.970Z,29.65
2023-05-06T11:08:20.353Z,29.33
2023-05-06T11:09:20.500Z,29.00
2023-05-06T11:10:19.927Z,35.13
2023-05-06T11:11:19.909Z,32.23
2023-05-06T11:12:19.911Z,28.20
2023-05-06T11:13:20.374Z,32.07
2023-05-06T11:14:19.902Z,29.49
2023-05-06T11:15:19.888Z,29.00
2023-05-06T11:16:19.869Z,32.87
2023-05-06T11:17:19.979Z,30.13
2023-05-06T11:18:20.309Z,29.65
2023-05-06T11:19:19.840Z,31.42
2023-05-06T11:20:19.871Z,31.42
2023-05-06T11:21:19.803Z,29.33
2023-05-06T11:22:20.121Z,29.33
2023-05-06T11:23:20.123Z,28.36
2023-05-06T11:24:19.781Z,30.13
2023-05-06T11:25:19.776Z,29.17
2023-05-06T11:26:19.783Z,29.00
2023-05-06T11:27:20.053Z,31.26
2023-05-06T11:28:19.735Z,33.35
2023-05-06T11:29:19.721Z,33.84
2023-05-06T11:30:19.743Z,29.65
2023-05-06T11:31:19.713Z,29.65
2023-05-06T11:32:20.524Z,31.10
2023-05-06T11:33:19.673Z,28.84
2023-05-06T11:34:19.679Z,31.42
2023-05-06T11:35:19.659Z,34.64
2023-05-06T11:36:19.724Z,28.20
2023-05-06T11:37:19.969Z,31.10
2023-05-06T11:38:19.633Z,32.87
2023-05-06T11:39:19.623Z,29.49
2023-05-06T11:40:19.610Z,28.84
2023-05-06T11:41:20.311Z,38.99
2023-05-06T11:42:19.585Z,29.49
2023-05-06T11:43:19.582Z,28.52
2023-05-06T11:44:19.571Z,28.52
2023-05-06T11:45:19.557Z,28.20
2023-05-06T11:46:19.851Z,29.00
2023-05-06T11:47:19.530Z,31.26
2023-05-06T11:48:19.551Z,30.13
2023-05-06T11:49:19.512Z,29.00
2023-05-06T11:50:19.819Z,29.49
2023-05-06T11:51:19.973Z,29.00
2023-05-06T11:52:19.482Z,29.33
2023-05-06T11:53:19.466Z,29.00
2023-05-06T11:54:19.463Z,29.97
2023-05-06T11:55:19.814Z,31.58
2023-05-06T11:56:19.442Z,29.97
2023-05-06T11:57:19.427Z,36.74
2023-05-06T11:58:19.420Z,32.23
2023-05-06T11:59:19.406Z,29.00
2023-05-06T12:00:20.117Z,29.17
2023-05-06T12:01:19.403Z,29.00
2023-05-06T12:02:19.480Z,29.33
2023-05-06T12:03:19.512Z,29.00
2023-05-06T12:04:19.944Z,29.00
2023-05-06T12:05:19.732Z,29.00
2023-05-06T12:06:19.352Z,28.84
2023-05-06T12:07:19.319Z,28.84
2023-05-06T12:08:26.686Z,28.36
2023-05-06T12:09:20.032Z,29.65
2023-05-06T12:10:19.294Z,30.45
2023-05-06T12:11:19.269Z,29.17
2023-05-06T12:12:19.283Z,29.33
2023-05-06T12:13:19.297Z,33.35
2023-05-06T12:14:19.498Z,31.10
2023-05-06T12:15:19.223Z,32.07
2023-05-06T12:16:19.289Z,29.81
2023-05-06T12:17:19.210Z,29.49
2023-05-06T12:18:19.983Z,29.49
2023-05-06T12:19:19.667Z,31.10
2023-05-06T12:20:19.177Z,37.38
2023-05-06T12:21:19.153Z,29.65
2023-05-06T12:22:19.304Z,40.93
2023-05-06T12:23:19.153Z,30.62
2023-05-06T12:24:19.152Z,29.33
2023-05-06T12:25:19.112Z,29.97
2023-05-06T12:26:19.109Z,29.33
2023-05-06T12:27:19.088Z,29.00
2023-05-06T12:28:19.105Z,29.00
2023-05-06T12:29:19.076Z,29.00
2023-05-06T12:30:19.072Z,28.84
2023-05-06T12:31:19.075Z,30.94
2023-05-06T12:32:19.072Z,30.94
2023-05-06T12:33:19.331Z,28.84
2023-05-06T12:34:19.026Z,29.00
2023-05-06T12:35:19.007Z,29.00
2023-05-06T12:36:19.096Z,29.17
2023-05-06T12:37:19.001Z,29.17
2023-05-06T12:38:18.984Z,29.17
2023-05-06T12:39:18.962Z,29.17
2023-05-06T12:40:18.962Z,29.97
2023-05-06T12:41:18.943Z,29.97
2023-05-06T12:42:18.950Z,30.62
2023-05-06T12:43:18.922Z,29.65
2023-05-06T12:44:18.916Z,31.26
2023-05-06T12:45:18.904Z,30.13
2023-05-06T12:46:18.955Z,30.13
2023-05-06T12:47:19.140Z,30.62
2023-05-06T12:48:18.874Z,32.07
2023-05-06T12:49:18.859Z,30.29
2023-05-06T12:50:18.894Z,30.62
2023-05-06T12:51:18.871Z,29.81
2023-05-06T12:52:18.834Z,30.13